Tiempo atmosférico en la estación meteorológica de Hermigua, Santa Cruz de Tenerife (252 m.)



Fecha
DESCASC
Temp. máxima en grados centígrados (hora)
DESCASC
Temp. mínima en grados centígrados (hora)
DESCASC
Temp. media en grados centígrados
DESCASC
Racha de viento máxima en m/sg (hora)
DESCASC
Velocidad máxima media en intervalos de 10 minutos(hora)
DESCASC
Precipitaciones diarias en mm
DESCASC
Precipitaciones de 00:00 a 06:00 en mm
DESCASC
Precipitaciones de 06:00 a 12:00 en mm
DESCASC
Precipitaciones de 12:00 a 18:00 en mm
DESCASC
Precipitaciones de 18:00 a 24:00 en mm
DESCASC
29-10-2020 22.1 (13:10) 18.7 (02:10) 20.4 8.33 (12:00) 3.61 (11:50) 0 0 0 0 0
28-10-2020 21.3 (13:00) 18.1 (04:10) 19.7 8.89 (19:30) 3.61 (11:10) 0 0 0 0 0
27-10-2020 22.5 (15:10) 17.8 (00:00) 20.1 7.78 (11:50) 3.61 (12:20) 0 0 0 0 0
26-10-2020 22.3 (14:00) 18.9 (00:00) 20.6 7.78 (11:00) 3.06 (13:30) 0 0 0 0 0
25-10-2020 20.6 (11:00) 16.4 (00:00) 18.5 7.22 (13:30) 3.06 (12:10) 0 0 0 0 0
24-10-2020 22.2 (15:10) 18.2 (00:00) 20.2 8.33 (11:10) 3.89 (21:50) 0 0 0 0 0
23-10-2020 21.8 (16:20) 17 (00:00) 19.4 9.17 (19:30) 3.89 (20:20) 0 0 0 0 0
22-10-2020 21.6 (14:00) 17.1 (00:00) 19.4 8.61 (10:40) 4.72 (10:40) 8.6 8.6 0 0 0
21-10-2020 22.1 (13:30) 17.3 (00:00) 19.7 11.67 (04:00) 6.11 (01:30) 28.4 0 0 7.4 21
20-10-2020 26.4 (06:10) 20.2 (00:00) 23.3 14.72 (06:00) 6.67 (06:00) 4.4 0 0 4.4 0
19-10-2020 27.3 (17:50) 18.3 (00:00) 22.8 6.11 (11:50) 3.06 (11:50) 0 0 0 0 0
18-10-2020 25.1 (16:30) 15.9 (00:00) 20.5 6.39 (14:10) 3.06 (14:40) 0 0 0 0 0
17-10-2020 23.6 (15:10) 16.2 (00:00) 19.9 5.83 (14:40) 2.78 (13:20) 0 0 0 0 0
16-10-2020 23.6 (12:20) 17.6 (00:00) 20.6 5.83 (12:00) 2.78 (11:50) 5.4 0 0 0 5.4
15-10-2020 25.4 (11:40) 16.7 (00:00) 21.1 6.39 (14:50) 3.33 (12:00) 0 0 0 0 0
14-10-2020 26.1 (12:50) 17.8 (00:00) 21.9 6.11 (16:20) 3.33 (13:30) 0 0 0 0 0
13-10-2020 28.1 (18:10) 18.4 (00:00) 23.3 9.44 (13:50) 3.61 (13:40) 0 0 0 0 0
12-10-2020 24.4 (16:30) 18.6 (00:00) 21.5 5.83 (14:50) 2.5 (12:50) 0 0 0 0 0
11-10-2020 22.6 (14:50) 20.4 (00:00) 21.5 7.22 (01:20) 3.06 (06:30) 0 0 0 0 0
10-10-2020 23.5 (15:00) 20.3 (00:00) 21.9 6.94 (06:20) 3.61 (20:00) 0 0 0 0 0
09-10-2020 24 (14:00) 20.7 (00:00) 22.4 6.94 (12:40) 3.33 (15:50) 0 0 0 0 0
08-10-2020 23.9 (15:20) 16.6 (00:00) 20.3 5.83 (15:10) 3.06 (12:40) 0 0 0 0 0
07-10-2020 24.5 (16:00) 18.9 (00:00) 21.7 5 (13:30) 2.5 (13:40) 0 0 0 0 0
06-10-2020 21.4 (16:50) 19.2 (00:00) 20.3 7.5 (07:10) 2.78 (06:00) 11.2 0.2 10.4 0.6 0
05-10-2020 25 (13:10) 20.2 (00:00) 22.6 7.22 (14:40) 3.33 (14:20) 0 0 0 0 0
04-10-2020 22.3 (15:40) 19.5 (00:00) 20.9 8.33 (08:10) 3.89 (16:30) 0.2 0 0.2 0 0
03-10-2020 23.3 (14:40) 20.2 (00:00) 21.8 9.44 (00:40) 4.72 (00:50) 0 0 0 0 0
02-10-2020 23.7 (13:20) 20.1 (00:00) 21.9 10.28 (10:10) 4.44 (01:30) 0 0 0 0 0
01-10-2020 24.3 (15:10) 20.1 (04:10) 22.2 9.17 (23:00) 4.17 (20:50) 0 0 0 0 0

Gráficas

Temp. máximas Temp. mínimas Temp. medias Precipitaciones Rachas de viento máximas Velocidades máximas media en intervalos de 10 minutos

Datos horarios

Fecha y hora oficial Temperatura (ºC) Velocidad del viento (km/h) Dirección del viento Racha (km/h) Dirección de racha Precipitación (mm) Presión (hPa) Tendencia (hPa) Humedad (%)
2020-10-30 23:00:00 17.9 5 Sur 13 Sudoeste 0 -- -- 82
2020-10-30 22:00:00 19.2 7 Sur 15 Sur 0 -- -- 77
2020-10-30 21:00:00 19.2 8 Sur 14 Sur 0 -- -- 71
2020-10-30 20:00:00 19.1 7 Sur 13 Sur 0 -- -- 77
2020-10-30 19:00:00 19.4 2 Sudeste 6 Este 0 -- -- 84
2020-10-30 18:00:00 20.7 3 Este 12 Sudeste 0 -- -- 81
2020-10-30 17:00:00 21.1 4 Nordeste 13 Nordeste 0 -- -- 81
2020-10-30 16:00:00 21.4 8 Nordeste 21 Nordeste 0 -- -- 76
2020-10-30 15:00:00 22.3 7 Nordeste 21 Norte 0 -- -- 73
2020-10-30 14:00:00 22.8 9 Nordeste 20 Norte 0 -- -- 70
2020-10-30 13:00:00 22.9 8 Nordeste 20 Nordeste 0 -- -- 71
2020-10-30 12:00:00 22 9 Norte 21 Nordeste 0 -- -- 75
2020-10-30 11:00:00 21 9 Norte 20 Nordeste 0 -- -- 78
2020-10-30 10:00:00 20.1 9 Nordeste 19 Norte 0 -- -- 80
2020-10-30 09:00:00 20.1 7 Nordeste 21 Norte 0 -- -- 80
2020-10-30 08:00:00 19.6 5 Nordeste 19 Nordeste 0 -- -- 84
2020-10-30 07:00:00 19.5 8 Nordeste 21 Nordeste 0 -- -- 83
2020-10-30 06:00:00 19.5 8 Nordeste 17 Este 0 -- -- 85
2020-10-30 05:00:00 19.5 7 Nordeste 26 Norte 0 -- -- 83
2020-10-30 04:00:00 19.5 9 Nordeste 23 Nordeste 0 -- -- 85
2020-10-30 03:00:00 19.5 6 Nordeste 18 Norte 0 -- -- 83
2020-10-30 02:00:00 19.4 9 Nordeste 19 Norte 0 -- -- 84
2020-10-30 01:00:00 19.4 6 Nordeste 21 Nordeste 0 -- -- 86
2020-10-30 00:00:00 19.5 7 Nordeste 23 Noroeste 0 -- -- 82
2020-10-29 23:00:00 19.6 6 Norte 24 Nordeste 0 -- -- 82
2020-10-29 22:00:00 19.7 10 Nordeste 24 Norte 0 -- -- 79
2020-10-29 21:00:00 19.7 9 Nordeste 25 Nordeste 0 -- -- 78
2020-10-29 20:00:00 19.6 10 Norte 21 Norte 0 -- -- 76
2020-10-29 19:00:00 19.6 5 Norte 22 Norte 0 -- -- 74
2020-10-29 18:00:00 19.9 8 Nordeste 21 Nordeste 0 -- -- 75
2020-10-29 17:00:00 20.4 9 Nordeste 22 Nordeste 0 -- -- 69
2020-10-29 16:00:00 20.6 8 Norte 19 Nordeste 0 -- -- 72
2020-10-29 15:00:00 21.5 8 Norte 23 Este 0 -- -- 62
2020-10-29 14:00:00 21.4 8 Norte 23 Norte 0 -- -- 63
2020-10-29 13:00:00 21.6 9 Norte 24 Nordeste 0 -- -- 60
2020-10-29 12:00:00 21.2 11 Nordeste 30 Norte 0 -- -- 68
2020-10-29 11:00:00 20.5 7 Norte 18 Norte 0 -- -- 68
2020-10-29 10:00:00 19.8 10 Norte 26 Norte 0 -- -- 72
2020-10-29 09:00:00 19.4 8 Norte 23 Norte 0 -- -- 71
2020-10-29 08:00:00 19.2 5 Norte 21 Norte 0 -- -- 73
2020-10-29 07:00:00 19 7 Norte 29 Norte 0 -- -- 73
2020-10-29 06:00:00 19 5 Norte 16 Norte 0 -- -- 71
2020-10-29 05:00:00 19.2 6 Nordeste 22 Norte 0 -- -- 72
2020-10-29 04:00:00 19.1 5 Norte 19 Norte 0 -- -- 69
2020-10-29 03:00:00 19.1 7 Norte 18 Norte 0 -- -- 71
2020-10-29 02:00:00 18.8 4 Norte 16 Noroeste 0 -- -- 75
2020-10-29 01:00:00 19 4 Nordeste 28 Norte 0 -- -- 78
2020-10-29 00:00:00 19.1 12 Norte 24 Norte 0 -- -- 77
2020-10-28 23:00:00 19.4 7 Norte 28 Norte 0 -- -- 72
2020-10-28 22:00:00 19.4 13 Norte 25 Norte 0 -- -- 73
2020-10-28 21:00:00 19.4 6 Norte 24 Nordeste 0 -- -- 76
2020-10-28 20:00:00 19.1 4 Norte 32 Nordeste 0 -- -- 73
2020-10-28 19:00:00 19.1 7 Nordeste 29 Nordeste 0 -- -- 77
2020-10-28 18:00:00 19.4 11 Nordeste 23 Nordeste 0 -- -- 77
2020-10-28 17:00:00 19.8 9 Norte 23 Norte 0 -- -- 73
2020-10-28 16:00:00 19.8 11 Norte 26 Norte 0 -- -- 71
2020-10-28 15:00:00 20.6 6 Norte 22 Norte 0 -- -- 69
2020-10-28 14:00:00 21 8 Norte 21 Nordeste 0 -- -- 66
2020-10-28 13:00:00 21.3 9 Norte 26 Norte 0 -- -- 60
2020-10-28 12:00:00 20.6 9 Norte 27 Norte 0 -- -- 63
2020-10-28 11:00:00 20.5 12 Nordeste 26 Norte 0 -- -- 64
2020-10-28 10:00:00 20.3 11 Norte 26 Norte 0 -- -- 64
2020-10-28 09:00:00 19.9 7 Norte 19 Nordeste 0 -- -- 62
2020-10-28 08:00:00 19.5 10 Nordeste 23 Norte 0 -- -- 68
2020-10-28 07:00:00 19.3 9 Norte 26 Norte 0 -- -- 73
2020-10-28 06:00:00 18.9 6 Norte 17 Noroeste 0 -- -- 80
2020-10-28 05:00:00 18.6 8 Norte 19 Nordeste 0 -- -- 80
2020-10-28 04:00:00 18.2 8 Norte 22 Este 0 -- -- 87
2020-10-28 03:00:00 19.2 10 Nordeste 23 Nordeste 0 -- -- 79
2020-10-28 02:00:00 19 9 Norte 22 Norte 0 -- -- 82
2020-10-28 01:00:00 18.6 0 Calma 6 Este 0 -- -- 82
2020-10-28 00:00:00 19.2 5 Nordeste 13 Nordeste 0 -- -- 82
2020-10-27 23:00:00 19.3 5 Norte 20 Nordeste 0 -- -- 80
2020-10-27 22:00:00 19.5 11 Norte 23 Nordeste 0 -- -- 81
2020-10-27 21:00:00 19.5 8 Nordeste 24 Nordeste 0 -- -- 82
2020-10-27 20:00:00 19.7 10 Norte 23 Nordeste 0 -- -- 81
2020-10-27 19:00:00 19.7 10 Nordeste 23 Nordeste 0 -- -- 79
2020-10-27 18:00:00 20 7 Nordeste 18 Norte 0 -- -- 78
2020-10-27 17:00:00 20.6 6 Nordeste 16 Norte 0 -- -- 70
2020-10-27 16:00:00 21.8 6 Norte 20 Norte 0 -- -- 65
2020-10-27 15:00:00 22.3 8 Norte 20 Norte 0 -- -- 65
2020-10-27 14:00:00 21.6 9 Norte 22 Nordeste 0 -- -- 70
2020-10-27 13:00:00 21 8 Norte 24 Norte 0 -- -- 75
2020-10-27 12:00:00 20.9 12 Norte 28 Nordeste 0 -- -- 81
2020-10-27 11:00:00 21.4 6 Nordeste 17 Norte 0 -- -- 76
2020-10-27 10:00:00 20.6 8 Nordeste 21 Nordeste 0 -- -- 78
2020-10-27 09:00:00 19.8 3 Oeste 12 Norte 0 -- -- 79
2020-10-27 08:00:00 18 2 Sudeste 8 Sudoeste 0 -- -- 85
2020-10-27 07:00:00 18 3 Nordeste 12 Nordeste 0 -- -- 86
2020-10-27 06:00:00 18.9 4 Nordeste 9 Este 0 -- -- 86
2020-10-27 05:00:00 18.6 0 Calma 9 Noroeste 0 -- -- 86
2020-10-27 04:00:00 18.3 0 Calma 10 Nordeste 0 -- -- 87
2020-10-27 03:00:00 19.3 6 Nordeste 15 Nordeste 0 -- -- 84
2020-10-27 02:00:00 19.2 3 Nordeste 9 Noroeste 0 -- -- 82
2020-10-27 01:00:00 19.1 0 Calma 11 Nordeste 0 -- -- 82
2020-10-27 00:00:00 19.3 4 Oeste 13 Oeste 0 -- -- 79
2020-10-26 23:00:00 18.9 3 Sudeste 11 Nordeste 0 -- -- 80
2020-10-26 22:00:00 19.5 4 Norte 20 Norte 0 -- -- 78
2020-10-26 21:00:00 19.6 6 Nordeste 21 Nordeste 0 -- -- 77
2020-10-26 20:00:00 19.7 6 Nordeste 19 Nordeste 0 -- -- 76
2020-10-26 19:00:00 19.8 6 Norte 18 Norte 0 -- -- 78
2020-10-26 18:00:00 20 6 Norte 20 Norte 0 -- -- 76
2020-10-26 17:00:00 20.3 7 Nordeste 18 Norte 0 -- -- 73
2020-10-26 16:00:00 20.9 7 Norte 19 Nordeste 0 -- -- 69
2020-10-26 15:00:00 21.7 8 Norte 23 Noroeste 0 -- -- 67
2020-10-26 14:00:00 22.3 8 Norte 21 Nordeste 0 -- -- 63
2020-10-26 13:00:00 21.1 8 Norte 20 Norte 0 -- -- 68
2020-10-26 12:00:00 21.4 8 Nordeste 21 Nordeste 0 -- -- 66
2020-10-26 11:00:00 20.5 8 Nordeste 28 Norte 0 -- -- 67
2020-10-26 10:00:00 19.8 9 Nordeste 19 Norte 0 -- -- 72
2020-10-26 09:00:00 19.4 5 Nordeste 24 Nordeste 0 -- -- 76
2020-10-26 08:00:00 19 8 Norte 22 Nordeste 0 -- -- 74
2020-10-26 07:00:00 19 8 Nordeste 21 Norte 0 -- -- 77
2020-10-26 06:00:00 19 6 Nordeste 20 Nordeste 0 -- -- 76
2020-10-26 05:00:00 19.1 8 Nordeste 18 Nordeste 0 -- -- 75
2020-10-26 04:00:00 19 7 Norte 15 Nordeste 0 -- -- 76
2020-10-26 03:00:00 19.1 4 Norte 17 Nordeste 0 -- -- 72
2020-10-26 02:00:00 19.2 5 Nordeste 16 Nordeste 0 -- -- 74
2020-10-26 01:00:00 19.2 6 Norte 18 Norte 0 -- -- 74
2020-10-26 00:00:00 19.1 3 Nordeste 13 Nordeste 0 -- -- 75
2020-10-25 23:00:00 19.2 5 Nordeste 19 Nordeste 0 -- -- 76
2020-10-25 22:00:00 19.3 6 Nordeste 20 Norte 0 -- -- 73
2020-10-25 21:00:00 19.4 10 Nordeste 21 Norte 0 -- -- 74
2020-10-25 20:00:00 19.3 7 Nordeste 17 Nordeste 0 -- -- 75
2020-10-25 19:00:00 19.4 5 Norte 17 Nordeste 0 -- -- 74
2020-10-25 18:00:00 19.6 7 Norte 20 Nordeste 0 -- -- 74
2020-10-25 17:00:00 19.9 6 Norte 22 Este 0 -- -- 72
2020-10-25 16:00:00 19.7 8 Norte 22 Nordeste 0 -- -- 73
2020-10-25 15:00:00 20 10 Nordeste 22 Este 0 -- -- 74
2020-10-25 14:00:00 20.4 8 Nordeste 26 Este 0 -- -- 73
2020-10-25 13:00:00 20.2 9 Nordeste 23 Nordeste 0 -- -- 70
2020-10-25 12:00:00 20.1 7 Nordeste 21 Nordeste 0 -- -- 76
2020-10-25 11:00:00 20.6 9 Nordeste 20 Nordeste 0 -- -- 72
2020-10-25 10:00:00 19.7 6 Norte 18 Norte 0 -- -- 74
2020-10-25 09:00:00 19.3 6 Nordeste 19 Nordeste 0 -- -- 76
2020-10-25 08:00:00 18.9 5 Norte 15 Norte 0 -- -- 78
2020-10-25 07:00:00 18.1 4 Norte 13 Noroeste 0 -- -- 82
2020-10-25 06:00:00 17 3 Sur 8 Sudeste 0 -- -- 82
2020-10-25 05:00:00 16.9 4 Sur 7 Sudeste 0 -- -- 81
2020-10-25 04:00:00 18.4 5 Noroeste 15 Norte 0 -- -- 73
2020-10-25 03:00:00 18.7 3 Norte 18 Norte 0 -- -- 70
2020-10-25 02:00:00 18.7 6 Noroeste 15 Nordeste 0 -- -- 73
2020-10-25 01:00:00 19.2 7 Nordeste 20 Nordeste 0 -- -- 69
2020-10-25 00:00:00 19.6 5 Norte 23 Nordeste 0 -- -- 70
2020-10-24 23:00:00 19.6 7 Nordeste 22 Norte 0 -- -- 75
2020-10-24 22:00:00 19.8 9 Nordeste 28 Nordeste 0 -- -- 72
2020-10-24 21:00:00 19.8 7 Nordeste 21 Norte 0 -- -- 72
2020-10-24 20:00:00 19.8 7 Nordeste 24 Norte 0 -- -- 75
2020-10-24 19:00:00 20.1 9 Nordeste 21 Este 0 -- -- 73
2020-10-24 18:00:00 20.3 6 Norte 21 Norte 0 -- -- 74
2020-10-24 17:00:00 20.7 9 Nordeste 19 Norte 0 -- -- 73
2020-10-24 16:00:00 21.1 9 Norte 24 Norte 0 -- -- 69
2020-10-24 15:00:00 22 7 Norte 22 Norte 0 -- -- 61
2020-10-24 14:00:00 21 7 Norte 24 Nordeste 0 -- -- 70
2020-10-24 13:00:00 20.9 8 Norte 26 Nordeste 0 -- -- 68
2020-10-24 12:00:00 20.5 10 Norte 30 Nordeste 0 -- -- 69
2020-10-24 11:00:00 20.5 10 Norte 28 Norte 0 -- -- 66
2020-10-24 10:00:00 20 10 Nordeste 24 Noroeste 0 -- -- 64
2020-10-24 09:00:00 18.7 7 Norte 22 Nordeste 0 -- -- 73
2020-10-24 08:00:00 18.6 8 Nordeste 21 Nordeste 0 -- -- 76
2020-10-24 07:00:00 18.2 4 Norte 15 Nordeste 0 -- -- 76
2020-10-24 06:00:00 18.3 7 Norte 21 Nordeste 0 -- -- 73
2020-10-24 05:00:00 18.6 8 Norte 22 Norte 0 -- -- 65
2020-10-24 04:00:00 18.3 8 Norte 18 Noroeste 0 -- -- 71
2020-10-24 03:00:00 18.5 8 Noroeste 17 Noroeste 0 -- -- 65
2020-10-24 02:00:00 18.5 6 Norte 21 Noroeste 0 -- -- 68
2020-10-24 01:00:00 18.6 8 Norte 20 Norte 0 -- -- 69
2020-10-24 00:00:00 18.7 9 Noroeste 23 Norte 0 -- -- 67
2020-10-23 23:00:00 19 10 Norte 26 Noroeste 0 -- -- 65
2020-10-23 22:00:00 19.2 8 Norte 23 Noroeste 0 -- -- 68
2020-10-23 21:00:00 19.4 13 Nordeste 28 Norte 0 -- -- 69
2020-10-23 20:00:00 19.6 9 Nordeste 33 Norte 0 -- -- 70
2020-10-23 19:00:00 19.8 12 Nordeste 31 Nordeste 0 -- -- 71
2020-10-23 18:00:00 20.1 9 Norte 23 Nordeste 0 -- -- 68
2020-10-23 17:00:00 20.9 8 Norte 20 Norte 0 -- -- 60
2020-10-23 16:00:00 21.3 12 Norte 26 Noroeste 0 -- -- 55
2020-10-23 15:00:00 21.3 12 Norte 25 Norte 0 -- -- 57
2020-10-23 14:00:00 20.8 9 Nordeste 24 Norte 0 -- -- 64
2020-10-23 13:00:00 21 9 Nordeste 25 Norte 0 -- -- 60
2020-10-23 12:00:00 20.7 9 Norte 23 Nordeste 0 -- -- 61
2020-10-23 11:00:00 19.8 8 Norte 22 Nordeste 0 -- -- 65
2020-10-23 10:00:00 19.2 8 Norte 21 Nordeste 0 -- -- 68
2020-10-23 09:00:00 18.7 9 Norte 19 Nordeste 0 -- -- 70
2020-10-23 08:00:00 18.1 5 Norte 20 Norte 0 -- -- 75
2020-10-23 07:00:00 17.8 5 Norte 11 Nordeste 0 -- -- 77
2020-10-23 06:00:00 17.4 3 Sur 8 Sudoeste 0 -- -- 80
2020-10-23 05:00:00 18.1 3 Norte 9 Noroeste 0 -- -- 78
2020-10-23 04:00:00 18.1 3 Nordeste 14 Nordeste 0 -- -- 79
2020-10-23 03:00:00 18.4 4 Norte 13 Este 0 -- -- 77
2020-10-23 02:00:00 18.5 4 Norte 14 Noroeste 0 -- -- 77
2020-10-23 01:00:00 18.5 6 Norte 16 Norte 0 -- -- 75
2020-10-23 00:00:00 18.8 4 Norte 14 Este 0 -- -- 72
2020-10-22 23:00:00 18.8 3 Norte 18 Norte 0 -- -- 75
2020-10-22 22:00:00 18.7 4 Norte 13 Norte 0 -- -- 71
2020-10-22 21:00:00 19 7 Norte 14 Norte 0 -- -- 72
2020-10-22 20:00:00 19.2 5 Norte 14 Nordeste 0 -- -- 72
2020-10-22 19:00:00 19.6 5 Nordeste 13 Nordeste 0 -- -- 68
2020-10-22 18:00:00 20.2 5 Norte 18 Norte 0 -- -- 66
2020-10-22 17:00:00 20.8 7 Nordeste 18 Norte 0 -- -- 66
2020-10-22 16:00:00 20.5 8 Nordeste 18 Norte 0 -- -- 67
2020-10-22 15:00:00 21.5 12 Nordeste 23 Norte 0 -- -- 65
2020-10-22 14:00:00 21.6 10 Nordeste 27 Norte 0 -- -- 65
2020-10-22 13:00:00 21.1 10 Nordeste 27 Nordeste 0 -- -- 66
2020-10-22 12:00:00 20.5 13 Nordeste 30 Nordeste 0 -- -- 67
2020-10-22 11:00:00 19.5 14 Nordeste 31 Nordeste 0 -- -- 72
2020-10-22 10:00:00 19.4 11 Nordeste 28 Nordeste 0 -- -- 70
2020-10-22 09:00:00 18.7 7 Norte 19 Nordeste 0 -- -- 75
2020-10-22 08:00:00 18.4 5 Norte 18 Nordeste 0 -- -- 75
2020-10-22 07:00:00 18.5 8 Nordeste 20 Este 0 -- -- 73
2020-10-22 06:00:00 18.5 5 Norte 26 Este 0 -- -- 79
2020-10-22 05:00:00 18.1 5 Norte 22 Nordeste 0 -- -- 84
2020-10-22 04:00:00 17.8 5 Sudoeste 22 Nordeste 0.8 -- -- 86
2020-10-22 03:00:00 17.6 7 Oeste 23 Nordeste 2.2 -- -- 88
2020-10-22 02:00:00 17.6 5 Sur 15 Nordeste 3.6 -- -- 91
2020-10-22 01:00:00 17.1 5 Sudeste 13 Sur 2 -- -- 94
2020-10-22 00:00:00 17.3 5 Sur 14 Sur 8 -- -- 93
2020-10-21 23:00:00 18.1 4 Sudeste 24 Este 8.2 -- -- 90
2020-10-21 22:00:00 18.2 5 Este 24 Este 3.2 -- -- 87
2020-10-21 21:00:00 19.3 6 Nordeste 22 Este 0 -- -- 80
2020-10-21 20:00:00 18.9 4 Sudoeste 14 Nordeste 0 -- -- 83
2020-10-21 19:00:00 18.8 8 Este 16 Sudeste 1.6 -- -- 90
2020-10-21 18:00:00 19.1 5 Este 22 Este 2 -- -- 86
2020-10-21 17:00:00 20 3 Nordeste 13 Este 0 -- -- 83
2020-10-21 16:00:00 19.7 6 Este 19 Norte 2.2 -- -- 89
2020-10-21 15:00:00 19.3 9 Nordeste 31 Norte 3.2 -- -- 89
2020-10-21 14:00:00 21.8 9 Nordeste 23 Norte 0 -- -- 74
2020-10-21 13:00:00 21.8 5 Nordeste 14 Norte 0 -- -- 71
2020-10-21 12:00:00 21.2 5 Norte 21 Nordeste 0 -- -- 75
2020-10-21 11:00:00 21.6 9 Nordeste 28 Sudoeste 0 -- -- 64
2020-10-21 10:00:00 21.2 9 Oeste 36 Sudoeste 0 -- -- 65
2020-10-21 09:00:00 20.5 15 Sudoeste 39 Sudoeste 0 -- -- 66
2020-10-21 08:00:00 20.4 16 Sudoeste 33 Sudoeste 0 -- -- 64
2020-10-21 07:00:00 20.3 16 Oeste 38 Oeste 0 -- -- 63
2020-10-21 06:00:00 20.3 16 Sudoeste 31 Sudoeste 0 -- -- 67
2020-10-21 05:00:00 20.6 13 Sudoeste 40 Oeste 0 -- -- 66
2020-10-21 04:00:00 20.7 14 Sudoeste 42 Sudoeste 0 -- -- 67
2020-10-21 03:00:00 20.5 12 Sudoeste 27 Oeste 0 -- -- 64
2020-10-21 02:00:00 20.7 14 Sudoeste 38 Sudoeste 0 -- -- 55
2020-10-21 01:00:00 20 11 Oeste 24 Sudoeste 0 -- -- 63
2020-10-21 00:00:00 20.5 10 Oeste 34 Oeste 0 -- -- 67
2020-10-20 23:00:00 20.8 15 Sudoeste 34 Oeste 0 -- -- 70
2020-10-20 22:00:00 20.9 12 Sudoeste 32 Oeste 0 -- -- 63
2020-10-20 21:00:00 21.6 13 Sudoeste 26 Sudoeste 0 -- -- 66
2020-10-20 20:00:00 21.9 12 Oeste 28 Oeste 0 -- -- 72
2020-10-20 19:00:00 22.6 10 Este 20 Norte 0 -- -- 72
2020-10-20 18:00:00 23 14 Sudoeste 32 Sudoeste 0 -- -- 68
2020-10-20 17:00:00 24 9 Sur 25 Este 0 -- -- 62
2020-10-20 16:00:00 24.6 8 Sudoeste 33 Sudoeste 0 -- -- 62
2020-10-20 15:00:00 24.1 14 Sur 41 Sudoeste 0 -- -- 70
2020-10-20 14:00:00 23 11 Este 51 Oeste 4.4 -- -- 87
2020-10-20 13:00:00 25.9 12 Sur 40 Nordeste 0 -- -- 66
2020-10-20 12:00:00 24.6 13 Oeste 33 Oeste 0 -- -- 73
2020-10-20 11:00:00 25.1 11 Sur 38 Sur 0 -- -- 63
2020-10-20 10:00:00 25.2 17 Sur 42 Sudoeste 0 -- -- 58
2020-10-20 09:00:00 25.2 13 Sur 35 Sudoeste 0 -- -- 54
2020-10-20 08:00:00 25.5 13 Sur 39 Sur 0 -- -- 50
2020-10-20 07:00:00 25.9 18 Sur 48 Sur 0 -- -- 48
2020-10-20 06:00:00 26.3 24 Sur 53 Sur 0 -- -- 45
2020-10-20 05:00:00 25.6 16 Sudoeste 38 Sur 0 -- -- 47
2020-10-20 04:00:00 23.7 5 Nordeste 18 Oeste 0 -- -- 68
2020-10-20 03:00:00 23.8 6 Norte 33 Sudoeste 0 -- -- 69
2020-10-20 02:00:00 24.3 11 Oeste 28 Sudoeste 0 -- -- 63
2020-10-20 01:00:00 20.7 4 Sudeste 9 Sur 0 -- -- 79
2020-10-20 00:00:00 20.7 4 Sudeste 8 Este 0 -- -- 82
2020-10-19 23:00:00 21.8 6 Este 9 Sur 0 -- -- 77
2020-10-19 22:00:00 21.8 3 Sudeste 10 Sur 0 -- -- 78
2020-10-19 21:00:00 22.5 5 Sur 8 Sur 0 -- -- 81
2020-10-19 20:00:00 23.9 3 Nordeste 7 Este 0 -- -- 74
2020-10-19 19:00:00 25.3 2 Nordeste 7 Este 0 -- -- 66
2020-10-19 18:00:00 27.2 4 Norte 14 Norte 0 -- -- 63
2020-10-19 17:00:00 26.9 6 Norte 17 Norte 0 -- -- 63
2020-10-19 16:00:00 26.5 9 Noroeste 19 Norte 0 -- -- 63
2020-10-19 15:00:00 26.1 10 Nordeste 21 Noroeste 0 -- -- 68
2020-10-19 14:00:00 25.3 8 Nordeste 19 Nordeste 0 -- -- 70
2020-10-19 13:00:00 25.5 9 Nordeste 19 Norte 0 -- -- 68
2020-10-19 12:00:00 24.8 10 Nordeste 22 Nordeste 0 -- -- 69
2020-10-19 11:00:00 24.5 7 Norte 13 Norte 0 -- -- 71
2020-10-19 10:00:00 22.9 5 Sudoeste 9 Sudoeste 0 -- -- 75
2020-10-19 09:00:00 18.9 4 Sudeste 6 Sudeste 0 -- -- 88
2020-10-19 08:00:00 19.3 5 Sudeste 8 Sur 0 -- -- 84
2020-10-19 07:00:00 20.9 0 Calma 13 Sudoeste 0 -- -- 77
2020-10-19 06:00:00 20.1 4 Sur 12 Sur 0 -- -- 82
2020-10-19 05:00:00 20.4 4 Sudoeste 12 Sur 0 -- -- 79
2020-10-19 04:00:00 18.3 4 Sur 6 Sudeste 0 -- -- 88
2020-10-19 03:00:00 19 3 Este 8 Este 0 -- -- 85
2020-10-19 02:00:00 18.6 4 Este 6 Sudeste 0 -- -- 86
2020-10-19 01:00:00 18.9 3 Nordeste 9 Sur 0 -- -- 85
2020-10-19 00:00:00 18.7 4 Sudeste 6 Sudeste 0 -- -- 86
2020-10-18 23:00:00 18.4 3 Sudeste 7 Sur 0 -- -- 86
2020-10-18 22:00:00 19.1 3 Sudeste 4 Sudeste 0 -- -- 84
2020-10-18 21:00:00 20 3 Este 5 Sur 0 -- -- 80
2020-10-18 20:00:00 21.6 2 Sudeste 5 Nordeste 0 -- -- 73
2020-10-18 19:00:00 22.7 2 Oeste 11 Norte 0 -- -- 69
2020-10-18 18:00:00 24.2 6 Nordeste 14 Nordeste 0 -- -- 63
2020-10-18 17:00:00 24.8 7 Nordeste 18 Nordeste 0 -- -- 61
2020-10-18 16:00:00 24.5 8 Nordeste 18 Norte 0 -- -- 61
2020-10-18 15:00:00 24.1 8 Norte 23 Nordeste 0 -- -- 64
2020-10-18 14:00:00 24.1 8 Nordeste 18 Norte 0 -- -- 63
2020-10-18 13:00:00 23.7 7 Nordeste 15 Norte 0 -- -- 66
2020-10-18 12:00:00 23.5 6 Nordeste 11 Norte 0 -- -- 63
2020-10-18 11:00:00 22.3 2 Noroeste 7 Este 0 -- -- 66
2020-10-18 10:00:00 20.3 2 Nordeste 8 Sur 0 -- -- 74
2020-10-18 09:00:00 16.6 4 Sur 9 Sudeste 0 -- -- 91
2020-10-18 08:00:00 15.9 3 Este 8 Sur 0 -- -- 91
2020-10-18 07:00:00 16.2 4 Sur 6 Sudeste 0 -- -- 89
2020-10-18 06:00:00 16.9 4 Sudeste 8 Sur 0 -- -- 88
2020-10-18 05:00:00 16.8 4 Sudeste 9 Sur 0 -- -- 88
2020-10-18 04:00:00 16.8 4 Sur 9 Sur 0 -- -- 89
2020-10-18 03:00:00 18.1 5 Este 8 Este 0 -- -- 84
2020-10-18 02:00:00 17.7 3 Sur 10 Sur 0 -- -- 86
2020-10-18 01:00:00 17.8 4 Sur 10 Sur 0 -- -- 86
2020-10-18 00:00:00 18 6 Sur 13 Sur 0 -- -- 86
2020-10-17 23:00:00 18.3 5 Sur 8 Sur 0 -- -- 86
2020-10-17 22:00:00 19.4 4 Sur 6 Sur 0 -- -- 83
2020-10-17 21:00:00 20.5 2 Este 5 Sudeste 0 -- -- 81
2020-10-17 20:00:00 20.7 2 Nordeste 8 Este 0 -- -- 78
2020-10-17 19:00:00 21.3 4 Norte 9 Norte 0 -- -- 73
2020-10-17 18:00:00 21.9 3 Nordeste 13 Norte 0 -- -- 72
2020-10-17 17:00:00 22.4 6 Nordeste 16 Nordeste 0 -- -- 70
2020-10-17 16:00:00 23.2 8 Norte 20 Nordeste 0 -- -- 67
2020-10-17 15:00:00 23.4 9 Nordeste 21 Este 0 -- -- 69
2020-10-17 14:00:00 23.4 8 Norte 19 Norte 0 -- -- 66
2020-10-17 13:00:00 23.1 6 Nordeste 16 Norte 0 -- -- 67
2020-10-17 12:00:00 23.2 6 Nordeste 12 Norte 0 -- -- 65
2020-10-17 11:00:00 22.3 5 Sudoeste 9 Sudoeste 0 -- -- 68
2020-10-17 10:00:00 19.7 3 Sudoeste 6 Sur 0 -- -- 85
2020-10-17 09:00:00 18.8 4 Este 11 Este 0 -- -- 87
2020-10-17 08:00:00 17.1 4 Sur 9 Sur 0 -- -- 90
2020-10-17 07:00:00 16.3 5 Sur 11 Sudoeste 0 -- -- 90
2020-10-17 06:00:00 16.4 4 Sur 13 Sur 0 -- -- 90
2020-10-17 05:00:00 16.6 5 Sur 11 Sur 0 -- -- 92
2020-10-17 04:00:00 16.9 6 Sur 12 Sur 0 -- -- 93
2020-10-17 03:00:00 16.8 8 Sur 12 Sur 0 -- -- 94
2020-10-17 02:00:00 17.5 6 Sur 11 Sur 0 -- -- 93
2020-10-17 01:00:00 18.3 5 Sur 9 Sur 0 -- -- 94
2020-10-17 00:00:00 19 3 Sudeste 11 Noroeste 0 -- -- 93
2020-10-16 23:00:00 19.3 2 Sur 6 Sudoeste 2.4 -- -- 94
2020-10-16 22:00:00 19.4 5 Sur 12 Oeste 2 -- -- 94
2020-10-16 21:00:00 19.5 3 Sudeste 8 Oeste 0.4 -- -- 93
2020-10-16 20:00:00 19.8 3 Nordeste 10 Este 0.4 -- -- 89
2020-10-16 19:00:00 20.2 3 Sur 8 Nordeste 0.2 -- -- 90
2020-10-16 18:00:00 20.5 2 Sudeste 14 Nordeste 0 -- -- 88
2020-10-16 17:00:00 20.5 4 Este 17 Norte 0 -- -- 85
2020-10-16 16:00:00 21.5 5 Nordeste 13 Norte 0 -- -- 80
2020-10-16 15:00:00 21.8 5 Norte 15 Nordeste 0 -- -- 77
2020-10-16 14:00:00 22.1 8 Nordeste 18 Nordeste 0 -- -- 75
2020-10-16 13:00:00 23 9 Nordeste 20 Nordeste 0 -- -- 71
2020-10-16 12:00:00 23.3 9 Norte 21 Norte 0 -- -- 71
2020-10-16 11:00:00 22.8 5 Nordeste 10 Nordeste 0 -- -- 71
2020-10-16 10:00:00 20.9 6 Sur 10 Sur 0 -- -- 74
2020-10-16 09:00:00 18 7 Sur 12 Sur 0 -- -- 84
2020-10-16 08:00:00 18.1 4 Sur 12 Sur 0 -- -- 80
2020-10-16 07:00:00 19 5 Sur 13 Sur 0 -- -- 77
2020-10-16 06:00:00 18.8 8 Sur 12 Sudeste 0 -- -- 80
2020-10-16 05:00:00 19.1 5 Sur 10 Sur 0 -- -- 78
2020-10-16 04:00:00 19.4 5 Sur 10 Sur 0 -- -- 78
2020-10-16 03:00:00 19.5 4 Sur 8 Sur 0 -- -- 80
2020-10-16 02:00:00 19.4 3 Sur 9 Sur 0 -- -- 81
2020-10-16 01:00:00 19.2 4 Sur 10 Sur 0 -- -- 83
2020-10-16 00:00:00 20 5 Sur 12 Sur 0 -- -- 82
2020-10-15 23:00:00 19.6 6 Sur 10 Nordeste 0 -- -- 85
2020-10-15 22:00:00 20.2 4 Este 9 Este 0 -- -- 90
2020-10-15 21:00:00 20.5 4 Nordeste 6 Sudeste 0 -- -- 86
2020-10-15 20:00:00 21.5 0 Calma 9 Este 0 -- -- 84
2020-10-15 19:00:00 21.8 3 Sudeste 19 Este 0 -- -- 82
2020-10-15 18:00:00 23.5 7 Nordeste 15 Nordeste 0 -- -- 73
2020-10-15 17:00:00 24.1 7 Nordeste 20 Nordeste 0 -- -- 71
2020-10-15 16:00:00 24.8 8 Nordeste 21 Este 0 -- -- 68
2020-10-15 15:00:00 24.4 8 Este 23 Este 0 -- -- 71
2020-10-15 14:00:00 23.8 8 Nordeste 18 Nordeste 0 -- -- 73
2020-10-15 13:00:00 23.9 5 Norte 21 Norte 0 -- -- 74
2020-10-15 12:00:00 23.9 12 Nordeste 19 Nordeste 0 -- -- 72
2020-10-15 11:00:00 22.8 5 Nordeste 13 Nordeste 0 -- -- 73
2020-10-15 10:00:00 21.1 5 Sur 11 Este 0 -- -- 74
2020-10-15 09:00:00 19.1 4 Este 15 Sudoeste 0 -- -- 78
2020-10-15 08:00:00 19.5 4 Sur 10 Nordeste 0 -- -- 88
2020-10-15 07:00:00 19.5 5 Nordeste 15 Nordeste 0 -- -- 89
2020-10-15 06:00:00 16.8 4 Sudeste 9 Sur 0 -- -- 92
2020-10-15 05:00:00 16.9 5 Sur 8 Sur 0 -- -- 92
2020-10-15 04:00:00 17 4 Sudeste 9 Sur 0 -- -- 91
2020-10-15 03:00:00 17.1 5 Sur 10 Sur 0 -- -- 88
2020-10-15 02:00:00 17.5 4 Sur 8 Sur 0 -- -- 92
2020-10-15 01:00:00 17.7 5 Sur 9 Sur 0 -- -- 85
2020-10-15 00:00:00 18.8 4 Este 9 Sur 0 -- -- 87
2020-10-14 23:00:00 20.2 4 Sudeste 9 Este 0 -- -- 85
2020-10-14 22:00:00 21.1 2 Nordeste 9 Oeste 0 -- -- 84
2020-10-14 21:00:00 21.3 4 Nordeste 12 Nordeste 0 -- -- 81
2020-10-14 20:00:00 21.3 5 Nordeste 16 Nordeste 0 -- -- 86
2020-10-14 19:00:00 21.8 3 Nordeste 18 Nordeste 0 -- -- 85
2020-10-14 18:00:00 22.5 4 Nordeste 18 Este 0 -- -- 82
2020-10-14 17:00:00 23.6 9 Nordeste 22 Nordeste 0 -- -- 79
2020-10-14 16:00:00 23.8 10 Nordeste 19 Nordeste 0 -- -- 79
2020-10-14 15:00:00 24.4 6 Nordeste 15 Noroeste 0 -- -- 75
2020-10-14 14:00:00 24.4 7 Nordeste 18 Nordeste 0 -- -- 78
2020-10-14 13:00:00 26.1 6 Nordeste 10 Nordeste 0 -- -- 70
2020-10-14 12:00:00 24.1 5 Nordeste 10 Nordeste 0 -- -- 78
2020-10-14 11:00:00 22.9 6 Nordeste 14 Nordeste 0 -- -- 83
2020-10-14 10:00:00 22.2 7 Nordeste 11 Este 0 -- -- 85
2020-10-14 09:00:00 18.5 6 Sudeste 8 Sur 0 -- -- 84
2020-10-14 08:00:00 18 3 Sur 8 Sudeste 0 -- -- 87
2020-10-14 07:00:00 18.8 3 Este 10 Sur 0 -- -- 88
2020-10-14 06:00:00 18.6 2 Sur 8 Sudeste 0 -- -- 93
2020-10-14 05:00:00 19 0 Calma 6 Sudeste 0 -- -- 93
2020-10-14 04:00:00 19.7 4 Este 8 Este 0 -- -- 91
2020-10-14 03:00:00 20.3 3 Este 5 Sudeste 0 -- -- 90
2020-10-14 02:00:00 20.9 3 Sudeste 8 Este 0 -- -- 88
2020-10-14 01:00:00 21.1 3 Este 7 Este 0 -- -- 88
2020-10-14 00:00:00 21.5 5 Este 8 Este 0 -- -- 90
2020-10-13 23:00:00 21.7 4 Este 11 Sudeste 0 -- -- 91
2020-10-13 22:00:00 21.9 3 Este 11 Sudeste 0 -- -- 91
2020-10-13 21:00:00 22.1 5 Este 9 Este 0 -- -- 89
2020-10-13 20:00:00 22.7 4 Nordeste 8 Nordeste 0 -- -- 86
2020-10-13 19:00:00 23.9 5 Nordeste 12 Nordeste 0 -- -- 83
2020-10-13 18:00:00 28 4 Noroeste 9 Norte 0 -- -- 50
2020-10-13 17:00:00 26.2 7 Nordeste 14 Norte 0 -- -- 60
2020-10-13 16:00:00 26.4 7 Nordeste 16 Norte 0 -- -- 62
2020-10-13 15:00:00 25.9 9 Nordeste 22 Nordeste 0 -- -- 67
2020-10-13 14:00:00 26.1 12 Nordeste 34 Nordeste 0 -- -- 71
2020-10-13 13:00:00 26.6 9 Nordeste 24 Nordeste 0 -- -- 68
2020-10-13 12:00:00 25.8 8 Nordeste 13 Este 0 -- -- 71
2020-10-13 11:00:00 24.5 9 Nordeste 24 Nordeste 0 -- -- 78
2020-10-13 10:00:00 23.7 6 Nordeste 14 Nordeste 0 -- -- 75
2020-10-13 09:00:00 20.4 3 Sudeste 8 Sudeste 0 -- -- 81
2020-10-13 08:00:00 18.7 4 Sur 8 Este 0 -- -- 87
2020-10-13 07:00:00 18.5 3 Sudeste 8 Sudeste 0 -- -- 88
2020-10-13 06:00:00 18.9 3 Este 7 Este 0 -- -- 84
2020-10-13 05:00:00 19.8 2 Sudeste 8 Nordeste 0 -- -- 74
2020-10-13 04:00:00 20.9 5 Nordeste 12 Este 0 -- -- 76
2020-10-13 03:00:00 19.2 2 Sur 10 Sudeste 0 -- -- 85
2020-10-13 02:00:00 20.6 2 Este 9 Nordeste 0 -- -- 91
2020-10-13 01:00:00 19.9 3 Sudeste 6 Sudeste 0 -- -- 94
2020-10-13 00:00:00 -- -- -- -- -- -- -- -- --
2020-10-12 23:00:00 20.9 3 Sudeste 7 Este 0 -- -- 94
2020-10-12 22:00:00 21.3 4 Este 10 Sudeste 0 -- -- 94
2020-10-12 21:00:00 21.6 4 Nordeste 9 Este 0 -- -- 93
2020-10-12 20:00:00 22 6 Este 11 Este 0 -- -- 92
2020-10-12 19:00:00 22.8 4 Nordeste 14 Este 0 -- -- 89
2020-10-12 18:00:00 24 6 Este 17 Nordeste 0 -- -- 84
2020-10-12 17:00:00 -- -- -- -- -- -- -- -- --
2020-10-12 16:00:00 24.3 7 Nordeste 21 Nordeste 0 -- -- 82
2020-10-12 15:00:00 24.3 7 Nordeste 21 Este 0 -- -- 81
2020-10-12 14:00:00 24.1 7 Nordeste 18 Nordeste 0 -- -- 81
2020-10-12 13:00:00 23.5 8 Nordeste 19 Nordeste 0 -- -- 84
2020-10-12 12:00:00 23.2 9 Nordeste 17 Nordeste 0 -- -- 84
2020-10-12 11:00:00 22.7 5 Nordeste 13 Nordeste 0 -- -- 84
2020-10-12 10:00:00 20.7 5 Sur 8 Sur 0 -- -- 88
2020-10-12 09:00:00 19.1 4 Sur 10 Sur 0 -- -- 92
2020-10-12 08:00:00 18.7 6 Sur 10 Sur 0 -- -- 91
2020-10-12 07:00:00 18.8 5 Sur 11 Sur 0 -- -- 88
2020-10-12 06:00:00 19.4 7 Sur 13 Sur 0 -- -- 85
2020-10-12 05:00:00 19.8 7 Sur 12 Sudeste 0 -- -- 82
2020-10-12 04:00:00 20.2 6 Sur 12 Sur 0 -- -- 81
2020-10-12 03:00:00 -- -- -- -- -- -- -- -- --
2020-10-12 02:00:00 20.7 5 Sur 10 Sur 0 -- -- 79
2020-10-12 01:00:00 20.7 4 Sur 10 Sur 0 -- -- 78
2020-10-12 00:00:00 20.8 4 Sudeste 8 Nordeste 0 -- -- 79
2020-10-11 23:00:00 21 0 Calma 9 Nordeste 0 -- -- 88
2020-10-11 22:00:00 21 3 Norte 13 Este 0 -- -- 87
2020-10-11 21:00:00 21 2 Este 14 Nordeste 0 -- -- 87
2020-10-11 20:00:00 -- -- -- -- -- -- -- -- --
2020-10-11 19:00:00 -- -- -- -- -- -- -- -- --
2020-10-11 18:00:00 21.4 6 Nordeste 23 Nordeste 0 -- -- 86
2020-10-11 17:00:00 21.6 7 Nordeste 19 Nordeste 0 -- -- 84
2020-10-11 16:00:00 22.2 7 Nordeste 19 Nordeste 0 -- -- 80
2020-10-11 15:00:00 22.4 8 Nordeste 19 Norte 0 -- -- 78
2020-10-11 14:00:00 22 7 Nordeste 18 Nordeste 0 -- -- 81
2020-10-11 13:00:00 21.8 8 Nordeste 18 Norte 0 -- -- 80
2020-10-11 12:00:00 22 8 Nordeste 21 Nordeste 0 -- -- 80
2020-10-11 11:00:00 21.4 7 Nordeste 19 Nordeste 0 -- -- 80
2020-10-11 10:00:00 21.1 6 Norte 21 Nordeste 0 -- -- 81
2020-10-11 09:00:00 20.8 7 Nordeste 20 Nordeste 0 -- -- 81
2020-10-11 08:00:00 20.6 5 Norte 16 Nordeste 0 -- -- 80
2020-10-11 07:00:00 20.5 5 Nordeste 24 Nordeste 0 -- -- 85
2020-10-11 06:00:00 20.6 9 Nordeste 24 Nordeste 0 -- -- 84
2020-10-11 05:00:00 20.5 7 Nordeste 18 Norte 0 -- -- 86
2020-10-11 04:00:00 20.6 5 Norte 18 Nordeste 0 -- -- 84
2020-10-11 03:00:00 20.5 6 Norte 18 Nordeste 0 -- -- 84
2020-10-11 02:00:00 20.6 8 Nordeste 26 Norte 0 -- -- 88
2020-10-11 01:00:00 20.6 8 Nordeste 24 Nordeste 0 -- -- 87
2020-10-11 00:00:00 20.6 9 Nordeste 24 Nordeste 0 -- -- 87
2020-10-10 23:00:00 20.7 8 Nordeste 21 Nordeste 0 -- -- 86
2020-10-10 22:00:00 20.7 13 Nordeste 23 Nordeste 0 -- -- 86
2020-10-10 21:00:00 20.7 7 Norte 23 Norte 0 -- -- 82
2020-10-10 20:00:00 20.8 13 Nordeste 24 Norte 0 -- -- 82
2020-10-10 19:00:00 21 9 Norte 22 Nordeste 0 -- -- 82
2020-10-10 18:00:00 21.3 9 Nordeste 19 Nordeste 0 -- -- 83
2020-10-10 17:00:00 22.1 11 Nordeste 21 Nordeste 0 -- -- 77
2020-10-10 16:00:00 22 8 Nordeste 22 Nordeste 0 -- -- 77
2020-10-10 15:00:00 23.5 11 Norte 22 Nordeste 0 -- -- 75
2020-10-10 14:00:00 23.1 9 Norte 22 Nordeste 0 -- -- 76
2020-10-10 13:00:00 22.1 8 Norte 21 Nordeste 0 -- -- 81
2020-10-10 12:00:00 22.1 6 Nordeste 20 Nordeste 0 -- -- 79
2020-10-10 11:00:00 21.6 9 Nordeste 18 Nordeste 0 -- -- 81
2020-10-10 10:00:00 21.2 6 Nordeste 14 Norte 0 -- -- 79
2020-10-10 09:00:00 20.4 6 Nordeste 15 Nordeste 0 -- -- 82
2020-10-10 08:00:00 20.4 7 Norte 22 Norte 0 -- -- 85
2020-10-10 07:00:00 20.4 10 Norte 25 Nordeste 0 -- -- 85
2020-10-10 06:00:00 20.4 8 Nordeste 16 Norte 0 -- -- 86
2020-10-10 05:00:00 20.5 5 Nordeste 16 Norte 0 -- -- 85
2020-10-10 04:00:00 20.5 5 Norte 19 Nordeste 0 -- -- 86
2020-10-10 03:00:00 20.5 5 Nordeste 16 Nordeste 0 -- -- 84
2020-10-10 02:00:00 20.5 6 Norte 17 Este 0 -- -- 85
2020-10-10 01:00:00 20.4 3 Nordeste 11 Nordeste 0 -- -- 85
2020-10-10 00:00:00 20.7 3 Norte 17 Nordeste 0 -- -- 86
2020-10-09 23:00:00 20.8 6 Nordeste 17 Nordeste 0 -- -- 85
2020-10-09 22:00:00 20.9 5 Norte 20 Nordeste 0 -- -- 84
2020-10-09 21:00:00 20.9 6 Nordeste 19 Norte 0 -- -- 81
2020-10-09 20:00:00 21.2 8 Norte 23 Norte 0 -- -- 77
2020-10-09 19:00:00 21.8 7 Nordeste 17 Nordeste 0 -- -- 79
2020-10-09 18:00:00 23.6 6 Nordeste 20 Norte 0 -- -- 70
2020-10-09 17:00:00 23.9 6 Nordeste 23 Nordeste 0 -- -- 70
2020-10-09 16:00:00 22.6 10 Nordeste 24 Nordeste 0 -- -- 83
2020-10-09 15:00:00 23.8 9 Nordeste 20 Norte 0 -- -- 76
2020-10-09 14:00:00 24 8 Norte 20 Norte 0 -- -- 69
2020-10-09 13:00:00 22.1 10 Nordeste 25 Este 0 -- -- 86
2020-10-09 12:00:00 22.7 8 Nordeste 17 Nordeste 0 -- -- 82
2020-10-09 11:00:00 22.3 8 Nordeste 17 Este 0 -- -- 81
2020-10-09 10:00:00 21.7 5 Nordeste 11 Nordeste 0 -- -- 87
2020-10-09 09:00:00 21.4 6 Nordeste 13 Norte 0 -- -- 84
2020-10-09 08:00:00 21.2 5 Nordeste 16 Nordeste 0 -- -- 85
2020-10-09 07:00:00 21.1 5 Nordeste 13 Nordeste 0 -- -- 86
2020-10-09 06:00:00 21.1 0 Calma 10 Norte 0 -- -- 87
2020-10-09 05:00:00 21.1 4 Noroeste 8 Nordeste 0 -- -- 84
2020-10-09 04:00:00 21.2 3 Este 6 Sudeste 0 -- -- 85
2020-10-09 03:00:00 21 4 Sudoeste 6 Sur 0 -- -- 81
2020-10-09 02:00:00 21 3 Sur 6 Sur 0 -- -- 81
2020-10-09 01:00:00 21.1 2 Este 6 Nordeste 0 -- -- 85
2020-10-09 00:00:00 21.2 0 Calma 6 Sudeste 0 -- -- 86
2020-10-08 23:00:00 21.3 2 Sudoeste 10 Norte 0 -- -- 88
2020-10-08 22:00:00 21.4 4 Nordeste 10 Nordeste 0 -- -- 87
2020-10-08 21:00:00 21.5 4 Este 9 Sudeste 0 -- -- 87
2020-10-08 20:00:00 21.7 4 Nordeste 10 Norte 0 -- -- 86
2020-10-08 19:00:00 22 3 Norte 13 Nordeste 0 -- -- 86
2020-10-08 18:00:00 22.5 3 Sur 17 Nordeste 0 -- -- 83
2020-10-08 17:00:00 22.8 8 Nordeste 18 Nordeste 0 -- -- 81
2020-10-08 16:00:00 23.7 9 Nordeste 21 Nordeste 0 -- -- 77
2020-10-08 15:00:00 23.8 7 Nordeste 18 Nordeste 0 -- -- 76
2020-10-08 14:00:00 23.3 9 Nordeste 18 Nordeste 0 -- -- 79
2020-10-08 13:00:00 23.1 9 Nordeste 21 Nordeste 0 -- -- 80
2020-10-08 12:00:00 23.2 7 Nordeste 15 Noroeste 0 -- -- 78
2020-10-08 11:00:00 22.7 6 Nordeste 14 Nordeste 0 -- -- 78
2020-10-08 10:00:00 20.8 5 Sur 9 Sur 0 -- -- 76
2020-10-08 09:00:00 17.2 4 Sudeste 6 Sur 0 -- -- 96
2020-10-08 08:00:00 16.6 4 Sur 7 Sur 0 -- -- 94
2020-10-08 07:00:00 16.8 4 Sur 9 Sur 0 -- -- 92
2020-10-08 06:00:00 16.8 5 Sur 9 Sur 0 -- -- 92
2020-10-08 05:00:00 17.4 6 Sur 10 Sur 0 -- -- 92
2020-10-08 04:00:00 17.9 3 Este 8 Sur 0 -- -- 94
2020-10-08 03:00:00 18.4 4 Sur 8 Sur 0 -- -- 93
2020-10-08 02:00:00 19.5 4 Sudeste 8 Sur 0 -- -- 93
2020-10-08 01:00:00 20.4 4 Sur 6 Sur 0 -- -- 91
2020-10-08 00:00:00 21 4 Sur 6 Sur 0 -- -- 92
2020-10-07 23:00:00 21.3 3 Este 6 Nordeste 0 -- -- 93
2020-10-07 22:00:00 21.4 2 Este 6 Noroeste 0 -- -- 92
2020-10-07 21:00:00 21.4 3 Este 6 Este 0 -- -- 92
2020-10-07 20:00:00 21.8 2 Nordeste 8 Nordeste 0 -- -- 90
2020-10-07 19:00:00 22.1 4 Nordeste 14 Nordeste 0 -- -- 88
2020-10-07 18:00:00 23.2 6 Nordeste 11 Este 0 -- -- 84
2020-10-07 17:00:00 24.1 7 Nordeste 16 Nordeste 0 -- -- 81
2020-10-07 16:00:00 24.5 7 Norte 15 Norte 0 -- -- 79
2020-10-07 15:00:00 23.9 8 Nordeste 17 Norte 0 -- -- 82
2020-10-07 14:00:00 23.9 8 Nordeste 18 Nordeste 0 -- -- 84
2020-10-07 13:00:00 24 8 Norte 16 Norte 0 -- -- 81
2020-10-07 12:00:00 23.6 6 Nordeste 14 Nordeste 0 -- -- 84
2020-10-07 11:00:00 23.2 5 Norte 10 Nordeste 0 -- -- 84
2020-10-07 10:00:00 22.2 3 Sudeste 8 Sur 0 -- -- 85
2020-10-07 09:00:00 20.5 2 Sur 4 Sudoeste 0 -- -- 95
2020-10-07 08:00:00 20.1 3 Sudeste 4 Sur 0 -- -- 94
2020-10-07 07:00:00 20.1 0 Calma 4 Este 0 -- -- 93
2020-10-07 06:00:00 20 4 Sudeste 7 Este 0 -- -- 93
2020-10-07 05:00:00 20.2 5 Nordeste 9 Sudeste 0 -- -- 91
2020-10-07 04:00:00 19.2 4 Sur 9 Sur 0 -- -- 95
2020-10-07 03:00:00 18.9 3 Sur 6 Este 0 -- -- 96
2020-10-07 02:00:00 19 6 Sudeste 8 Sudeste 0 -- -- 96
2020-10-07 01:00:00 19.2 5 Sur 10 Sudeste 0 -- -- 95
2020-10-07 00:00:00 19.7 3 Sudeste 5 Sudeste 0 -- -- 93
2020-10-06 23:00:00 20.3 0 Calma 4 Sur 0 -- -- 92
2020-10-06 22:00:00 20.5 2 Sur 5 Sudeste 0 -- -- 92
2020-10-06 21:00:00 20.5 3 Sur 5 Sur 0 -- -- 91
2020-10-06 20:00:00 20.6 0 Calma 8 Este 0 -- -- 90
2020-10-06 19:00:00 20.7 4 Nordeste 11 Nordeste 0 -- -- 89
2020-10-06 18:00:00 20.9 5 Nordeste 11 Este 0 -- -- 90
2020-10-06 17:00:00 21.4 4 Nordeste 9 Este 0 -- -- 88
2020-10-06 16:00:00 20.9 3 Nordeste 7 Nordeste 0 -- -- 89
2020-10-06 15:00:00 20.5 0 Calma 8 Sudoeste 0.2 -- -- 92
2020-10-06 14:00:00 20.1 3 Sur 10 Sudoeste 0 -- -- 95
2020-10-06 13:00:00 19.7 4 Sudoeste 11 Sur 0.4 -- -- 96
2020-10-06 12:00:00 19.5 4 Sur 9 Sudeste 1.6 -- -- 96
2020-10-06 11:00:00 19.3 3 Sudoeste 9 Norte 3 -- -- 95
2020-10-06 10:00:00 19.6 3 Sur 13 Norte 2 -- -- 95
2020-10-06 09:00:00 19.5 8 Nordeste 21 Norte 1 -- -- 93
2020-10-06 08:00:00 19.8 7 Norte 27 Nordeste 1.8 -- -- 95
2020-10-06 07:00:00 20.1 7 Nordeste 19 Nordeste 1 -- -- 94
2020-10-06 06:00:00 20.3 10 Nordeste 20 Este 0.2 -- -- 92
2020-10-06 05:00:00 20.5 5 Este 15 Nordeste 0 -- -- 88
2020-10-06 04:00:00 20.2 5 Sur 10 Sur 0 -- -- 78
2020-10-06 03:00:00 20 5 Sur 15 Sudoeste 0 -- -- 78
2020-10-06 02:00:00 20.4 6 Sur 12 Sur 0 -- -- 84
2020-10-06 01:00:00 20.8 4 Norte 14 Norte 0 -- -- 82
2020-10-06 00:00:00 20.8 5 Nordeste 15 Nordeste 0 -- -- 86
2020-10-05 23:00:00 20.9 6 Nordeste 21 Norte 0 -- -- 88
2020-10-05 22:00:00 21.2 6 Nordeste 18 Nordeste 0 -- -- 87
2020-10-05 21:00:00 21.3 7 Nordeste 20 Norte 0 -- -- 85
2020-10-05 20:00:00 21.4 8 Norte 22 Norte 0 -- -- 87
2020-10-05 19:00:00 21.5 10 Norte 25 Este 0 -- -- 84
2020-10-05 18:00:00 21.9 6 Norte 18 Nordeste 0 -- -- 81
2020-10-05 17:00:00 22 7 Nordeste 23 Norte 0 -- -- 79
2020-10-05 16:00:00 22.9 8 Norte 22 Nordeste 0 -- -- 76
2020-10-05 15:00:00 24.1 8 Nordeste 26 Norte 0 -- -- 71
2020-10-05 14:00:00 24.4 10 Nordeste 21 Nordeste 0 -- -- 66
2020-10-05 13:00:00 24.6 8 Nordeste 24 Nordeste 0 -- -- 62
2020-10-05 12:00:00 24 6 Nordeste 19 Norte 0 -- -- 66
2020-10-05 11:00:00 23.1 6 Norte 20 Noroeste 0 -- -- 67
2020-10-05 10:00:00 21.4 6 Nordeste 17 Norte 0 -- -- 79
2020-10-05 09:00:00 20.4 5 Norte 14 Nordeste 0 -- -- 85
2020-10-05 08:00:00 20.3 5 Norte 21 Norte 0 -- -- 89
2020-10-05 07:00:00 20.3 7 Norte 17 Norte 0 -- -- 85
2020-10-05 06:00:00 20.2 6 Nordeste 19 Norte 0 -- -- 84
2020-10-05 05:00:00 20.4 5 Norte 21 Norte 0 -- -- 86
2020-10-05 04:00:00 20.4 7 Nordeste 23 Norte 0 -- -- 88
2020-10-05 03:00:00 20.5 9 Norte 20 Este 0 -- -- 87
2020-10-05 02:00:00 20.6 9 Norte 24 Nordeste 0 -- -- 86
2020-10-05 01:00:00 20.7 8 Norte 16 Norte 0 -- -- 82
2020-10-05 00:00:00 20.8 4 Norte 21 Noroeste 0 -- -- 83
2020-10-04 23:00:00 20.8 6 Norte 18 Norte 0 -- -- 83
2020-10-04 22:00:00 20.7 6 Norte 15 Norte 0 -- -- 81
2020-10-04 21:00:00 20.8 6 Nordeste 23 Norte 0 -- -- 81
2020-10-04 20:00:00 20.9 6 Nordeste 30 Nordeste 0 -- -- 81
2020-10-04 19:00:00 21.2 11 Nordeste 27 Norte 0 -- -- 80
2020-10-04 18:00:00 21.8 9 Norte 27 Norte 0 -- -- 77
2020-10-04 17:00:00 21.9 10 Nordeste 29 Norte 0 -- -- 79
2020-10-04 16:00:00 22.2 11 Nordeste 27 Norte 0 -- -- 80
2020-10-04 15:00:00 22.1 9 Norte 24 Nordeste 0 -- -- 78
2020-10-04 14:00:00 21.9 8 Norte 25 Norte 0 -- -- 82
2020-10-04 13:00:00 21.9 9 Nordeste 24 Nordeste 0 -- -- 85
2020-10-04 12:00:00 21.5 8 Norte 21 Nordeste 0 -- -- 88
2020-10-04 11:00:00 20.8 6 Norte 16 Noroeste 0 -- -- 90
2020-10-04 10:00:00 20 7 Norte 19 Norte 0.2 -- -- 97
2020-10-04 09:00:00 19.5 7 Norte 30 Nordeste 0 -- -- 98
2020-10-04 08:00:00 20 9 Nordeste 25 Nordeste 0 -- -- 98
2020-10-04 07:00:00 20 10 Nordeste 30 Nordeste 0 -- -- 96
2020-10-04 06:00:00 20.3 8 Norte 21 Este 0 -- -- 95
2020-10-04 05:00:00 20.3 7 Nordeste 24 Nordeste 0 -- -- 95
2020-10-04 04:00:00 20.4 10 Nordeste 24 Norte 0 -- -- 92
2020-10-04 03:00:00 20.2 8 Nordeste 25 Nordeste 0 -- -- 90
2020-10-04 02:00:00 20.7 11 Norte 26 Nordeste 0 -- -- 91
2020-10-04 01:00:00 20.6 6 Noroeste 22 Nordeste 0 -- -- 91
2020-10-04 00:00:00 20.7 12 Nordeste 25 Norte 0 -- -- 91
2020-10-03 23:00:00 20.2 13 Nordeste 28 Nordeste 0 -- -- 94
2020-10-03 22:00:00 20.7 7 Norte 27 Nordeste 0 -- -- 92
2020-10-03 21:00:00 20.6 7 Norte 21 Norte 0 -- -- 92
2020-10-03 20:00:00 20.5 7 Norte 22 Norte 0 -- -- 92
2020-10-03 19:00:00 20.7 9 Norte 32 Norte 0 -- -- 92
2020-10-03 18:00:00 21.5 8 Norte 27 Norte 0 -- -- 87
2020-10-03 17:00:00 21.5 9 Norte 26 Nordeste 0 -- -- 84
2020-10-03 16:00:00 22.1 8 Norte 25 Noroeste 0 -- -- 81
2020-10-03 15:00:00 23 10 Nordeste 24 Nordeste 0 -- -- 75
2020-10-03 14:00:00 22.9 11 Norte 26 Noroeste 0 -- -- 75
2020-10-03 13:00:00 21.5 11 Norte 29 Nordeste 0 -- -- 85
2020-10-03 12:00:00 21.3 11 Nordeste 27 Nordeste 0 -- -- 81
2020-10-03 11:00:00 21.5 8 Norte 20 Norte 0 -- -- 77
2020-10-03 10:00:00 21.1 6 Norte 28 Nordeste 0 -- -- 77
2020-10-03 09:00:00 20.8 8 Norte 21 Norte 0 -- -- 80
2020-10-03 08:00:00 20.8 5 Norte 23 Nordeste 0 -- -- 76
2020-10-03 07:00:00 20.9 6 Nordeste 29 Norte 0 -- -- 75
2020-10-03 06:00:00 20.9 7 Norte 25 Nordeste 0 -- -- 74
2020-10-03 05:00:00 20.8 9 Nordeste 28 Norte 0 -- -- 72
2020-10-03 04:00:00 20.5 8 Nordeste 23 Norte 0 -- -- 79
2020-10-03 03:00:00 20.8 6 Norte 23 Norte 0 -- -- 69
2020-10-03 02:00:00 20.7 7 Nordeste 33 Norte 0 -- -- 78
2020-10-03 01:00:00 20.9 15 Nordeste 34 Norte 0 -- -- 82
2020-10-03 00:00:00 20.9 11 Nordeste 31 Norte 0 -- -- 81
2020-10-02 23:00:00 20.7 4 Norte 21 Nordeste 0 -- -- 86
2020-10-02 22:00:00 20.6 7 Norte 24 Norte 0 -- -- 86
2020-10-02 21:00:00 20.4 7 Norte 18 Norte 0 -- -- 88
2020-10-02 20:00:00 20.1 14 Norte 26 Norte 0 -- -- 90
2020-10-02 19:00:00 20.7 5 Norte 32 Norte 0 -- -- 83
2020-10-02 18:00:00 21.2 9 Nordeste 31 Norte 0 -- -- 81
2020-10-02 17:00:00 21.8 14 Norte 33 Este 0 -- -- 75
2020-10-02 16:00:00 22.1 10 Nordeste 28 Nordeste 0 -- -- 79
2020-10-02 15:00:00 23.3 9 Norte 23 Nordeste 0 -- -- 66
2020-10-02 14:00:00 22.8 9 Nordeste 27 Nordeste 0 -- -- 66
2020-10-02 13:00:00 23.5 10 Norte 27 Norte 0 -- -- 62
2020-10-02 12:00:00 21.6 15 Norte 31 Nordeste 0 -- -- 72
2020-10-02 11:00:00 21.1 8 Norte 37 Nordeste 0 -- -- 74
2020-10-02 10:00:00 21.1 9 Nordeste 23 Nordeste 0 -- -- 68
2020-10-02 09:00:00 20.8 5 Norte 35 Norte 0 -- -- 66
2020-10-02 08:00:00 20.5 10 Norte 27 Norte 0 -- -- 67
2020-10-02 07:00:00 20.4 7 Nordeste 26 Norte 0 -- -- 68
2020-10-02 06:00:00 20.3 11 Nordeste 29 Norte 0 -- -- 78
2020-10-02 05:00:00 20.5 11 Nordeste 27 Noroeste 0 -- -- 76
2020-10-02 04:00:00 20.6 6 Norte 28 Nordeste 0 -- -- 74
2020-10-02 03:00:00 20.7 10 Nordeste 31 Nordeste 0 -- -- 76
2020-10-02 02:00:00 20.4 8 Norte 33 Norte 0 -- -- 83
2020-10-02 01:00:00 20.5 7 Norte 30 Norte 0 -- -- 83
2020-10-02 00:00:00 20.8 12 Nordeste 27 Nordeste 0 -- -- 83
2020-10-01 23:00:00 20.7 14 Norte 33 Norte 0 -- -- 85
2020-10-01 22:00:00 20.8 7 Nordeste 26 Norte 0 -- -- 81
2020-10-01 21:00:00 21 14 Norte 29 Norte 0 -- -- 81
2020-10-01 20:00:00 21.2 5 Norte 24 Nordeste 0 -- -- 78
2020-10-01 19:00:00 21.5 11 Nordeste 25 Norte 0 -- -- 79
2020-10-01 18:00:00 22 8 Nordeste 23 Nordeste 0 -- -- 73
2020-10-01 17:00:00 22.6 9 Norte 25 Norte 0 -- -- 73
2020-10-01 16:00:00 23.9 9 Norte 23 Nordeste 0 -- -- 65
2020-10-01 15:00:00 24.1 10 Norte 24 Norte 0 -- -- 64
2020-10-01 14:00:00 23.7 10 Norte 22 Norte 0 -- -- 68
2020-10-01 13:00:00 22.6 14 Norte 30 Norte 0 -- -- 67
2020-10-01 12:00:00 21.8 10 Nordeste 25 Norte 0 -- -- 77
2020-10-01 11:00:00 21.7 10 Norte 26 Nordeste 0 -- -- 77
2020-10-01 10:00:00 21 9 Norte 26 Nordeste 0 -- -- 80
2020-10-01 09:00:00 20.7 9 Nordeste 22 Norte 0 -- -- 84
2020-10-01 08:00:00 20.4 6 Nordeste 14 Norte 0 -- -- 80
2020-10-01 07:00:00 20.1 6 Nordeste 24 Nordeste 0 -- -- 85
2020-10-01 06:00:00 20.5 5 Norte 23 Este 0 -- -- 83
2020-10-01 05:00:00 20.4 8 Nordeste 18 Norte 0 -- -- 83
2020-10-01 04:00:00 20.2 5 Norte 32 Nordeste 0 -- -- 82
2020-10-01 03:00:00 20.4 6 Norte 15 Norte 0 -- -- 82
2020-10-01 02:00:00 20.6 7 Norte 22 Norte 0 -- -- 82
2020-10-01 01:00:00 20.7 12 Norte 24 Norte 0 -- -- 80
2020-10-01 00:00:00 20.7 7 Nordeste 18 Nordeste 0 -- -- 80